Dades meteomassalio
 
Diari Summary for Agost 16, 2018 Units:  English    Metric   Both
« Previous Day
Next Day »
Diari Semanal Mensual Anual Personalitzat
  Actual: Maxima: Minima: Mijana:
Temperatura: 27.2 °F TemperatureC °F 15.6 °F 19 °F
Rosada: 18.8 °F DewpointC °F 12.7 °F 14.9 °F
Humitat: 60 % Humidity % 60 % 77 %
Velocitat del vent: 0.0 mph WindSpeedKMH mph 0.0 mph 0 mph
Racha vent: 0.0 mph WindSpeedGustKMH mph - -
Vent:Calm - - North
Pressio: 1016.0 in PressurehPa in 1016.0 in -
Pluja: 0.0 in      
Historical Graphs
 
 
Tabular Data for Agost 16, 2018
Time Temperature Dew Point Pressure Wind Wind Speed Wind Gust Humidity Rainfall Rate (Hourly) solar Conditions
TemperatureC °F DewpointC °F PressurehPa in Calm     Humidity % HourlyPrecipMM in SolarRadiationWatts/m^2 W/m2 Conditions
00:04 20.6 °F 14.7 °F 1017.1 in Calm     69 % 0.0 in 0.00 W/m2 CLR
00:09 20.6 °F 14.7 °F 1017.0 in Calm     69 % 0.0 in 0.00 W/m2 CLR
00:14 20.0 °F 14.3 °F 1017.0 in Calm     70 % 0.0 in 0.00 W/m2 CLR
00:19 20.0 °F 14.3 °F 1017.0 in Calm     70 % 0.0 in 0.00 W/m2 CLR
00:24 20.0 °F 14.6 °F 1017.0 in Calm     71 % 0.0 in 0.00 W/m2 CLR
00:29 20.0 °F 14.6 °F 1017.0 in Calm     71 % 0.0 in 0.00 W/m2 CLR
00:34 19.4 °F 14.1 °F 1017.0 in Calm     71 % 0.0 in 0.00 W/m2 CLR
00:39 19.4 °F 14.3 °F 1017.0 in Calm     72 % 0.0 in 0.00 W/m2 CLR
00:44 19.4 °F 14.3 °F 1016.9 in Calm     72 % 0.0 in 0.00 W/m2 CLR
00:49 19.4 °F 14.5 °F 1017.0 in Calm     73 % 0.0 in 0.00 W/m2 CLR
00:54 18.9 °F 13.9 °F 1017.0 in Calm     73 % 0.0 in 0.00 W/m2 CLR
00:59 18.9 °F 13.9 °F 1017.0 in Calm     73 % 0.0 in 0.00 W/m2 CLR
01:04 18.9 °F 14.2 °F 1017.1 in Calm     74 % 0.0 in 0.00 W/m2 CLR
01:09 18.9 °F 14.2 °F 1017.1 in Calm     74 % 0.0 in 0.00 W/m2 CLR
01:14 18.3 °F 13.6 °F 1017.2 in Calm     74 % 0.0 in 0.00 W/m2 CLR
01:19 18.3 °F 13.8 °F 1017.2 in Calm     75 % 0.0 in 0.00 W/m2 CLR
01:24 18.3 °F 13.8 °F 1017.1 in Calm     75 % 0.0 in 0.00 W/m2 CLR
01:29 18.3 °F 13.6 °F 1017.2 in Calm     74 % 0.0 in 0.00 W/m2 CLR
01:34 18.3 °F 13.6 °F 1017.1 in Calm     74 % 0.0 in 0.00 W/m2 CLR
01:39 18.3 °F 13.6 °F 1017.1 in Calm     74 % 0.0 in 0.00 W/m2 CLR
01:44 18.3 °F 13.6 °F 1017.0 in Calm     74 % 0.0 in 0.00 W/m2 CLR
01:49 17.8 °F 13.3 °F 1017.1 in Calm     75 % 0.0 in 0.00 W/m2 CLR
01:54 17.8 °F 13.5 °F 1017.1 in Calm     76 % 0.0 in 0.00 W/m2 CLR
01:59 17.8 °F 13.9 °F 1017.1 in Calm     78 % 0.0 in 0.00 W/m2 CLR
02:04 17.8 °F 13.7 °F 1017.0 in Calm     77 % 0.0 in 0.00 W/m2 CLR
02:09 17.8 °F 13.7 °F 1017.0 in Calm     77 % 0.0 in 0.00 W/m2 CLR
02:14 17.8 °F 13.9 °F 1017.0 in Calm     78 % 0.0 in 0.00 W/m2 CLR
02:19 17.8 °F 13.9 °F 1017.0 in Calm     78 % 0.0 in 0.00 W/m2 CLR
02:24 17.8 °F 13.9 °F 1017.0 in Calm     78 % 0.0 in 0.00 W/m2 CLR
02:29 17.2 °F 13.3 °F 1017.0 in Calm     78 % 0.0 in 0.00 W/m2 CLR
02:34 17.2 °F 13.3 °F 1016.9 in Calm     78 % 0.0 in 0.00 W/m2 CLR
02:39 17.2 °F 13.3 °F 1017.0 in Calm     78 % 0.0 in 0.00 W/m2 CLR
02:44 17.2 °F 13.3 °F 1016.9 in Calm     78 % 0.0 in 0.00 W/m2 CLR
02:49 17.2 °F 13.3 °F 1016.8 in Calm     78 % 0.0 in 0.00 W/m2 CLR
02:54 17.2 °F 13.6 °F 1016.8 in Calm     79 % 0.0 in 0.00 W/m2 CLR
02:59 17.2 °F 13.6 °F 1016.8 in Calm     79 % 0.0 in 0.00 W/m2 CLR
03:04 17.2 °F 13.6 °F 1016.8 in Calm     79 % 0.0 in 0.00 W/m2 CLR
03:09 17.2 °F 13.6 °F 1016.7 in Calm     79 % 0.0 in 0.00 W/m2 CLR
03:14 16.7 °F 13.0 °F 1016.8 in Calm     79 % 0.0 in 0.00 W/m2 CLR
03:19 16.7 °F 13.0 °F 1016.7 in Calm     79 % 0.0 in 0.00 W/m2 CLR
03:24 16.7 °F 13.2 °F 1016.6 in Calm     80 % 0.0 in 0.00 W/m2 CLR
03:29 16.7 °F 13.4 °F 1016.6 in Calm     81 % 0.0 in 0.00 W/m2 CLR
03:34 16.7 °F 13.4 °F 1016.5 in Calm     81 % 0.0 in 0.00 W/m2 CLR
03:39 16.7 °F 13.4 °F 1016.5 in Calm     81 % 0.0 in 0.00 W/m2 CLR
03:44 16.7 °F 13.4 °F 1016.5 in Calm     81 % 0.0 in 0.00 W/m2 CLR
03:49 16.7 °F 13.4 °F 1016.4 in Calm     81 % 0.0 in 0.00 W/m2 CLR
03:54 16.7 °F 13.4 °F 1016.5 in Calm     81 % 0.0 in 0.00 W/m2 CLR
03:59 16.1 °F 12.8 °F 1016.4 in Calm     81 % 0.0 in 0.00 W/m2 CLR
04:04 16.1 °F 12.8 °F 1016.4 in Calm     81 % 0.0 in 0.00 W/m2 CLR
04:09 16.1 °F 13.1 °F 1016.4 in Calm     82 % 0.0 in 0.00 W/m2 CLR
04:14 16.1 °F 13.1 °F 1016.5 in Calm     82 % 0.0 in 0.00 W/m2 CLR
04:19 16.1 °F 12.8 °F 1016.4 in Calm     81 % 0.0 in 0.00 W/m2 CLR
04:24 16.1 °F 13.1 °F 1016.4 in Calm     82 % 0.0 in 0.00 W/m2 CLR
04:29 16.1 °F 13.1 °F 1016.3 in Calm     82 % 0.0 in 0.00 W/m2 CLR
04:34 16.1 °F 13.1 °F 1016.4 in Calm     82 % 0.0 in 0.00 W/m2 CLR
04:39 16.1 °F 13.1 °F 1016.3 in Calm     82 % 0.0 in 0.00 W/m2 CLR
04:44 16.1 °F 13.1 °F 1016.4 in Calm     82 % 0.0 in 0.00 W/m2 CLR
04:49 16.1 °F 13.2 °F 1016.3 in Calm     83 % 0.0 in 0.00 W/m2 CLR
04:54 16.1 °F 13.2 °F 1016.3 in Calm     83 % 0.0 in 0.00 W/m2 CLR
04:59 16.1 °F 13.2 °F 1016.2 in Calm     83 % 0.0 in 0.00 W/m2 CLR
05:04 16.1 °F 13.2 °F 1016.3 in Calm     83 % 0.0 in 0.00 W/m2 CLR
05:09 16.1 °F 13.2 °F 1016.2 in Calm     83 % 0.0 in 0.00 W/m2 CLR
05:14 16.1 °F 13.2 °F 1016.3 in Calm     83 % 0.0 in 0.00 W/m2 CLR
05:19 16.1 °F 13.2 °F 1016.3 in Calm     83 % 0.0 in 0.00 W/m2 CLR
05:24 16.1 °F 13.2 °F 1016.3 in Calm     83 % 0.0 in 0.00 W/m2 CLR
05:29 16.1 °F 13.2 °F 1016.3 in Calm     83 % 0.0 in 0.00 W/m2 CLR
05:34 16.1 °F 13.2 °F 1016.2 in Calm     83 % 0.0 in 0.00 W/m2 CLR
05:39 16.1 °F 13.2 °F 1016.3 in Calm     83 % 0.0 in 0.00 W/m2 CLR
05:44 15.6 °F 12.7 °F 1016.4 in Calm     83 % 0.0 in 0.00 W/m2 CLR
05:49 15.6 °F 12.9 °F 1016.4 in Calm     84 % 0.0 in 0.00 W/m2 CLR
05:54 15.6 °F 12.9 °F 1016.3 in Calm     84 % 0.0 in 0.00 W/m2 CLR
05:59 16.1 °F 13.6 °F 1016.3 in Calm     85 % 0.0 in 0.00 W/m2 CLR
06:03 16.1 °F 13.6 °F 1016.3 in Calm     85 % 0.0 in 0.00 W/m2 CLR
06:06 16.1 °F 13.4 °F 1016.3 in Calm     84 % 0.0 in 0.00 W/m2 CLR
06:14 16.1 °F 13.6 °F 1016.2 in Calm     85 % 0.0 in 0.00 W/m2 CLR
06:19 16.1 °F 13.6 °F 1016.2 in Calm     85 % 0.0 in 0.00 W/m2 CLR
06:24 15.6 °F 13.1 °F 1016.2 in Calm     85 % 0.0 in 0.00 W/m2 CLR
06:29 15.6 °F 13.1 °F 1016.2 in Calm     85 % 0.0 in 0.00 W/m2 CLR
06:34 15.6 °F 13.1 °F 1016.3 in Calm     85 % 0.0 in 0.00 W/m2 CLR
06:39 15.6 °F 13.1 °F 1016.4 in Calm     85 % 0.0 in 0.00 W/m2 CLR
06:44 15.6 °F 13.1 °F 1016.4 in Calm     85 % 0.0 in 0.00 W/m2 CLR
06:49 15.6 °F 13.1 °F 1016.5 in Calm     85 % 0.0 in 0.00 W/m2 CLR
06:54 15.6 °F 13.1 °F 1016.5 in Calm     85 % 0.0 in 0.00 W/m2 CLR
06:59 15.6 °F 13.1 °F 1016.5 in Calm     85 % 0.0 in 5.00 W/m2 CLR
07:04 15.6 °F 13.1 °F 1016.6 in Calm     85 % 0.0 in 7.00 W/m2 OVC
07:09 15.6 °F 13.1 °F 1016.7 in Calm     85 % 0.0 in 5.00 W/m2 OVC
07:14 15.6 °F 13.1 °F 1016.8 in Calm     85 % 0.0 in 11.00 W/m2 BKN
07:19 15.6 °F 13.2 °F 1016.8 in Calm     86 % 0.0 in 21.00 W/m2 BKN
07:24 16.1 °F 13.8 °F 1016.7 in Calm     86 % 0.0 in 16.00 W/m2 BKN
07:29 16.1 °F 13.8 °F 1016.7 in Calm     86 % 0.0 in 21.00 W/m2 BKN
07:34 16.1 °F 13.8 °F 1016.7 in Calm     86 % 0.0 in 25.00 W/m2 BKN
07:39 16.1 °F 13.8 °F 1016.6 in Calm     86 % 0.0 in 30.00 W/m2 BKN
07:44 16.1 °F 13.8 °F 1016.5 in Calm     86 % 0.0 in 40.00 W/m2 BKN
07:49 16.7 °F 14.3 °F 1016.4 in Calm     86 % 0.0 in 56.00 W/m2 SCT
07:54 16.7 °F 14.3 °F 1016.6 in Calm     86 % 0.0 in 74.00 W/m2 FEW
07:59 16.7 °F 14.1 °F 1016.6 in Calm     85 % 0.0 in 86.00 W/m2 FEW
08:04 16.7 °F 14.1 °F 1016.5 in Calm     85 % 0.0 in 109.00 W/m2 CLR
08:09 17.2 °F 14.7 °F 1016.5 in Calm     85 % 0.0 in 123.00 W/m2 CLR
08:14 17.8 °F 15.1 °F 1016.5 in Calm     84 % 0.0 in 155.00 W/m2 CLR
08:19 18.3 °F 15.4 °F 1016.5 in Calm     83 % 0.0 in 195.00 W/m2 CLR
08:24 18.9 °F 15.9 °F 1016.5 in Calm     83 % 0.0 in 213.00 W/m2 CLR
08:29 19.4 °F 16.1 °F 1016.5 in Calm     81 % 0.0 in 246.00 W/m2 CLR
08:34 19.4 °F 15.9 °F 1016.5 in Calm     80 % 0.0 in 229.00 W/m2 CLR
08:39 20.0 °F 16.4 °F 1016.4 in Calm     80 % 0.0 in 165.00 W/m2 CLR
08:44 20.0 °F 16.2 °F 1016.5 in Calm     79 % 0.0 in 185.00 W/m2 CLR
08:49 20.6 °F 16.6 °F 1016.5 in Calm     78 % 0.0 in 251.00 W/m2 CLR
08:54 20.6 °F 16.4 °F 1016.5 in Calm     77 % 0.0 in 294.00 W/m2 CLR
08:59 21.1 °F 16.9 °F 1016.5 in Calm     77 % 0.0 in 244.00 W/m2 CLR
09:04 21.7 °F 17.3 °F 1016.5 in Calm     76 % 0.0 in 236.00 W/m2 CLR
09:09 21.7 °F 16.8 °F 1016.4 in Calm     74 % 0.0 in 297.00 W/m2 CLR
09:14 22.2 °F 17.4 °F 1016.4 in Calm     74 % 0.0 in 190.00 W/m2 CLR
09:19 22.2 °F 17.2 °F 1016.5 in Calm     73 % 0.0 in 190.00 W/m2 CLR
09:24 22.8 °F 17.4 °F 1016.5 in Calm     72 % 0.0 in 190.00 W/m2 CLR
09:29 22.8 °F 17.7 °F 1016.6 in Calm     73 % 0.0 in 202.00 W/m2 CLR
09:34 23.3 °F 18.0 °F 1016.6 in Calm     72 % 0.0 in 192.00 W/m2 CLR
09:39 23.3 °F 18.0 °F 1016.6 in Calm     72 % 0.0 in 193.00 W/m2 CLR
09:44 23.3 °F 18.2 °F 1016.6 in Calm     73 % 0.0 in 183.00 W/m2 CLR
09:49 23.9 °F 18.8 °F 1016.6 in Calm     73 % 0.0 in 204.00 W/m2 CLR
09:54 23.9 °F 18.8 °F 1016.7 in Calm     73 % 0.0 in 262.00 W/m2 CLR
09:59 23.9 °F 18.6 °F 1016.6 in Calm     72 % 0.0 in 250.00 W/m2 CLR
10:04 24.4 °F 18.8 °F 1016.6 in Calm     71 % 0.0 in 332.00 W/m2 CLR
10:09 24.4 °F 18.8 °F 1016.6 in Calm     71 % 0.0 in 327.00 W/m2 CLR
10:14 25.0 °F 19.4 °F 1016.5 in Calm     71 % 0.0 in 269.00 W/m2 CLR
10:19 25.0 °F 19.4 °F 1016.6 in Calm     71 % 0.0 in 250.00 W/m2 CLR
10:24 25.0 °F 19.2 °F 1016.6 in Calm     70 % 0.0 in 258.00 W/m2 CLR
10:29 25.6 °F 19.4 °F 1016.6 in Calm     69 % 0.0 in 274.00 W/m2 CLR
10:34 25.6 °F 19.2 °F 1016.6 in Calm     68 % 0.0 in 283.00 W/m2 CLR
10:39 25.6 °F 19.2 °F 1016.6 in Calm     68 % 0.0 in 308.00 W/m2 CLR
10:44 25.6 °F 19.0 °F 1016.5 in Calm     67 % 0.0 in 334.00 W/m2 CLR
10:49 25.6 °F 19.0 °F 1016.5 in Calm     67 % 0.0 in 378.00 W/m2 CLR
10:54 26.1 °F 19.3 °F 1016.5 in Calm     66 % 0.0 in 401.00 W/m2 CLR
10:59 26.1 °F 19.3 °F 1016.5 in Calm     66 % 0.0 in 401.00 W/m2 CLR
11:04 26.1 °F 19.3 °F 1016.5 in Calm     66 % 0.0 in 385.00 W/m2 CLR
11:09 26.7 °F 19.8 °F 1016.5 in Calm     66 % 0.0 in 401.00 W/m2 CLR
11:14 26.7 °F 19.6 °F 1016.4 in Calm     65 % 0.0 in 434.00 W/m2 CLR
11:19 26.7 °F 19.6 °F 1016.4 in Calm     65 % 0.0 in 420.00 W/m2 CLR
11:24 26.7 °F 19.6 °F 1016.4 in Calm     65 % 0.0 in 464.00 W/m2 CLR
11:29 27.2 °F 19.8 °F 1016.4 in Calm     64 % 0.0 in 522.00 W/m2 CLR
11:34 27.2 °F 19.6 °F 1016.3 in Calm     63 % 0.0 in 559.00 W/m2 CLR
11:39 27.2 °F 19.1 °F 1016.3 in Calm     61 % 0.0 in 580.00 W/m2 CLR
11:44 27.2 °F 18.8 °F 1016.2 in Calm     60 % 0.0 in 626.00 W/m2 CLR
11:49 27.2 °F 18.8 °F 1016.0 in Calm     60 % 0.0 in 621.00 W/m2 CLR
Lo Temps de Massalio
Compliments of Weather Underground - 768 kb